sensor_id;sensor_type;location;lat;lon;timestamp;P1;durP1;ratioP1;P2;durP2;ratioP2
31990;SDS011;18508;49.386;8.370;2023-02-28T00:01:45;7.25;;;2.72;;
31990;SDS011;18508;49.386;8.370;2023-02-28T00:04:13;5.80;;;2.50;;
31990;SDS011;18508;49.386;8.370;2023-02-28T00:06:44;5.78;;;2.97;;
31990;SDS011;18508;49.386;8.370;2023-02-28T00:09:12;4.90;;;2.63;;
31990;SDS011;18508;49.386;8.370;2023-02-28T00:11:42;4.97;;;2.70;;
31990;SDS011;18508;49.386;8.370;2023-02-28T00:14:10;3.80;;;2.25;;
31990;SDS011;18508;49.386;8.370;2023-02-28T00:16:40;3.70;;;2.30;;
31990;SDS011;18508;49.386;8.370;2023-02-28T00:19:10;5.60;;;2.70;;
31990;SDS011;18508;49.386;8.370;2023-02-28T00:21:39;5.97;;;2.47;;
31990;SDS011;18508;49.386;8.370;2023-02-28T00:24:09;5.55;;;2.30;;
31990;SDS011;18508;49.386;8.370;2023-02-28T00:26:37;5.53;;;2.28;;
31990;SDS011;18508;49.386;8.370;2023-02-28T00:29:05;4.63;;;2.70;;
31990;SDS011;18508;49.386;8.370;2023-02-28T00:31:34;6.35;;;2.92;;
31990;SDS011;18508;49.386;8.370;2023-02-28T00:34:04;3.90;;;2.38;;
31990;SDS011;18508;49.386;8.370;2023-02-28T00:36:32;6.15;;;2.60;;
31990;SDS011;18508;49.386;8.370;2023-02-28T00:39:01;5.50;;;2.70;;
31990;SDS011;18508;49.386;8.370;2023-02-28T00:41:29;5.78;;;2.53;;
31990;SDS011;18508;49.386;8.370;2023-02-28T00:43:58;4.32;;;2.42;;
31990;SDS011;18508;49.386;8.370;2023-02-28T00:46:26;5.43;;;2.30;;
31990;SDS011;18508;49.386;8.370;2023-02-28T00:48:55;6.13;;;2.83;;
31990;SDS011;18508;49.386;8.370;2023-02-28T00:51:25;7.10;;;2.60;;
31990;SDS011;18508;49.386;8.370;2023-02-28T00:53:53;4.70;;;2.30;;
31990;SDS011;18508;49.386;8.370;2023-02-28T00:56:22;6.18;;;2.80;;
31990;SDS011;18508;49.386;8.370;2023-02-28T00:58:54;6.57;;;2.23;;
31990;SDS011;18508;49.386;8.370;2023-02-28T01:01:23;6.32;;;2.88;;
31990;SDS011;18508;49.386;8.370;2023-02-28T01:03:52;5.70;;;2.92;;
31990;SDS011;18508;49.386;8.370;2023-02-28T01:06:22;5.30;;;2.65;;
31990;SDS011;18508;49.386;8.370;2023-02-28T01:08:54;6.78;;;2.80;;
31990;SDS011;18508;49.386;8.370;2023-02-28T01:11:22;7.80;;;3.25;;
31990;SDS011;18508;49.386;8.370;2023-02-28T01:13:51;5.85;;;2.53;;
31990;SDS011;18508;49.386;8.370;2023-02-28T01:16:20;6.95;;;3.17;;
31990;SDS011;18508;49.386;8.370;2023-02-28T01:18:48;6.78;;;3.28;;
31990;SDS011;18508;49.386;8.370;2023-02-28T01:21:18;6.97;;;3.10;;
31990;SDS011;18508;49.386;8.370;2023-02-28T01:23:48;5.57;;;2.85;;
31990;SDS011;18508;49.386;8.370;2023-02-28T01:26:20;5.65;;;3.33;;
31990;SDS011;18508;49.386;8.370;2023-02-28T01:28:49;8.07;;;3.00;;
31990;SDS011;18508;49.386;8.370;2023-02-28T01:31:20;4.95;;;2.97;;
31990;SDS011;18508;49.386;8.370;2023-02-28T01:33:48;6.03;;;2.97;;
31990;SDS011;18508;49.386;8.370;2023-02-28T01:36:19;6.43;;;3.17;;
31990;SDS011;18508;49.386;8.370;2023-02-28T01:38:49;5.65;;;3.03;;
31990;SDS011;18508;49.386;8.370;2023-02-28T01:41:22;6.10;;;2.65;;
31990;SDS011;18508;49.386;8.370;2023-02-28T01:43:53;7.35;;;3.45;;
31990;SDS011;18508;49.386;8.370;2023-02-28T01:46:29;6.40;;;3.10;;
31990;SDS011;18508;49.386;8.370;2023-02-28T01:49:01;4.85;;;2.88;;
31990;SDS011;18508;49.386;8.370;2023-02-28T01:51:33;5.63;;;3.22;;
31990;SDS011;18508;49.386;8.370;2023-02-28T01:54:08;7.32;;;3.17;;
31990;SDS011;18508;49.386;8.370;2023-02-28T01:56:45;8.70;;;3.75;;
31990;SDS011;18508;49.386;8.370;2023-02-28T01:59:21;7.57;;;3.33;;
31990;SDS011;18508;49.386;8.370;2023-02-28T02:01:52;10.50;;;3.70;;
31990;SDS011;18508;49.386;8.370;2023-02-28T02:04:21;6.70;;;3.35;;
31990;SDS011;18508;49.386;8.370;2023-02-28T02:06:54;6.20;;;3.42;;
31990;SDS011;18508;49.386;8.370;2023-02-28T02:09:22;7.68;;;3.97;;
31990;SDS011;18508;49.386;8.370;2023-02-28T02:11:52;6.05;;;3.58;;
31990;SDS011;18508;49.386;8.370;2023-02-28T02:14:38;6.20;;;3.60;;
31990;SDS011;18508;49.386;8.370;2023-02-28T02:17:19;8.95;;;4.03;;
31990;SDS011;18508;49.386;8.370;2023-02-28T02:23:02;9.70;;;3.90;;
31990;SDS011;18508;49.386;8.370;2023-02-28T02:25:49;8.02;;;3.90;;
31990;SDS011;18508;49.386;8.370;2023-02-28T02:31:27;7.53;;;3.85;;
31990;SDS011;18508;49.386;8.370;2023-02-28T02:34:28;8.63;;;3.78;;
31990;SDS011;18508;49.386;8.370;2023-02-28T02:37:14;8.65;;;3.72;;
31990;SDS011;18508;49.386;8.370;2023-02-28T02:39:57;9.00;;;3.80;;
31990;SDS011;18508;49.386;8.370;2023-02-28T02:42:32;8.13;;;4.07;;
31990;SDS011;18508;49.386;8.370;2023-02-28T02:45:14;9.82;;;4.22;;
31990;SDS011;18508;49.386;8.370;2023-02-28T02:47:48;7.22;;;3.53;;
31990;SDS011;18508;49.386;8.370;2023-02-28T02:50:19;6.82;;;4.07;;
31990;SDS011;18508;49.386;8.370;2023-02-28T02:52:52;7.93;;;4.50;;
31990;SDS011;18508;49.386;8.370;2023-02-28T02:55:23;8.88;;;4.93;;
31990;SDS011;18508;49.386;8.370;2023-02-28T02:57:52;8.60;;;4.47;;
31990;SDS011;18508;49.386;8.370;2023-02-28T03:00:24;7.30;;;3.95;;
31990;SDS011;18508;49.386;8.370;2023-02-28T03:03:01;9.30;;;4.50;;
31990;SDS011;18508;49.386;8.370;2023-02-28T03:05:33;8.57;;;3.97;;
31990;SDS011;18508;49.386;8.370;2023-02-28T03:08:11;7.78;;;4.15;;
31990;SDS011;18508;49.386;8.370;2023-02-28T03:10:41;6.03;;;3.42;;
31990;SDS011;18508;49.386;8.370;2023-02-28T03:16:17;8.55;;;3.78;;
31990;SDS011;18508;49.386;8.370;2023-02-28T03:19:00;7.43;;;4.07;;
31990;SDS011;18508;49.386;8.370;2023-02-28T03:21:40;12.50;;;4.70;;
31990;SDS011;18508;49.386;8.370;2023-02-28T03:24:15;6.47;;;4.03;;
31990;SDS011;18508;49.386;8.370;2023-02-28T03:26:50;14.10;;;5.05;;
31990;SDS011;18508;49.386;8.370;2023-02-28T03:29:23;8.50;;;4.95;;
31990;SDS011;18508;49.386;8.370;2023-02-28T03:32:02;8.43;;;4.90;;
31990;SDS011;18508;49.386;8.370;2023-02-28T03:34:41;9.40;;;4.93;;
31990;SDS011;18508;49.386;8.370;2023-02-28T03:37:16;9.02;;;5.03;;
31990;SDS011;18508;49.386;8.370;2023-02-28T03:39:49;10.15;;;4.78;;
31990;SDS011;18508;49.386;8.370;2023-02-28T03:42:25;9.35;;;4.60;;
31990;SDS011;18508;49.386;8.370;2023-02-28T03:44:57;9.15;;;4.55;;
31990;SDS011;18508;49.386;8.370;2023-02-28T03:47:29;8.52;;;4.45;;
31990;SDS011;18508;49.386;8.370;2023-02-28T03:50:02;9.05;;;4.80;;
31990;SDS011;18508;49.386;8.370;2023-02-28T03:52:38;11.68;;;5.15;;
31990;SDS011;18508;49.386;8.370;2023-02-28T03:55:09;11.13;;;5.28;;
31990;SDS011;18508;49.386;8.370;2023-02-28T03:57:40;10.48;;;4.40;;
31990;SDS011;18508;49.386;8.370;2023-02-28T04:00:18;9.52;;;4.72;;
31990;SDS011;18508;49.386;8.370;2023-02-28T04:02:54;11.73;;;5.13;;
31990;SDS011;18508;49.386;8.370;2023-02-28T04:05:23;8.85;;;4.97;;
31990;SDS011;18508;49.386;8.370;2023-02-28T04:07:59;8.93;;;4.78;;
31990;SDS011;18508;49.386;8.370;2023-02-28T04:10:31;7.60;;;4.50;;
31990;SDS011;18508;49.386;8.370;2023-02-28T04:13:01;9.10;;;5.25;;
31990;SDS011;18508;49.386;8.370;2023-02-28T04:15:30;8.80;;;4.72;;
31990;SDS011;18508;49.386;8.370;2023-02-28T04:18:01;10.98;;;5.07;;
31990;SDS011;18508;49.386;8.370;2023-02-28T04:20:31;10.18;;;4.93;;
31990;SDS011;18508;49.386;8.370;2023-02-28T04:23:01;12.02;;;5.15;;
31990;SDS011;18508;49.386;8.370;2023-02-28T04:25:30;7.50;;;4.50;;
31990;SDS011;18508;49.386;8.370;2023-02-28T04:27:58;8.35;;;4.53;;
31990;SDS011;18508;49.386;8.370;2023-02-28T04:30:27;9.27;;;4.63;;
31990;SDS011;18508;49.386;8.370;2023-02-28T04:32:55;10.50;;;4.90;;
31990;SDS011;18508;49.386;8.370;2023-02-28T04:35:24;8.80;;;4.70;;
31990;SDS011;18508;49.386;8.370;2023-02-28T04:37:53;13.23;;;6.40;;
31990;SDS011;18508;49.386;8.370;2023-02-28T04:40:24;12.45;;;6.07;;
31990;SDS011;18508;49.386;8.370;2023-02-28T04:42:54;9.27;;;5.25;;
31990;SDS011;18508;49.386;8.370;2023-02-28T04:45:22;14.30;;;5.80;;
31990;SDS011;18508;49.386;8.370;2023-02-28T04:47:50;10.27;;;5.80;;
31990;SDS011;18508;49.386;8.370;2023-02-28T04:50:19;8.77;;;5.88;;
31990;SDS011;18508;49.386;8.370;2023-02-28T04:52:48;10.25;;;4.97;;
31990;SDS011;18508;49.386;8.370;2023-02-28T04:55:17;11.63;;;5.95;;
31990;SDS011;18508;49.386;8.370;2023-02-28T04:57:47;15.18;;;5.95;;
31990;SDS011;18508;49.386;8.370;2023-02-28T05:00:15;10.27;;;5.35;;
31990;SDS011;18508;49.386;8.370;2023-02-28T05:02:45;8.05;;;4.97;;
31990;SDS011;18508;49.386;8.370;2023-02-28T05:05:13;10.02;;;5.53;;
31990;SDS011;18508;49.386;8.370;2023-02-28T05:07:45;11.70;;;5.30;;
31990;SDS011;18508;49.386;8.370;2023-02-28T05:10:13;11.90;;;5.35;;
31990;SDS011;18508;49.386;8.370;2023-02-28T05:12:42;8.45;;;5.38;;
31990;SDS011;18508;49.386;8.370;2023-02-28T05:15:12;12.30;;;5.72;;
31990;SDS011;18508;49.386;8.370;2023-02-28T05:17:41;11.02;;;5.88;;
31990;SDS011;18508;49.386;8.370;2023-02-28T05:20:11;9.15;;;4.63;;
31990;SDS011;18508;49.386;8.370;2023-02-28T05:22:43;12.77;;;6.00;;
31990;SDS011;18508;49.386;8.370;2023-02-28T05:25:13;8.95;;;5.15;;
31990;SDS011;18508;49.386;8.370;2023-02-28T05:27:45;8.55;;;5.15;;
31990;SDS011;18508;49.386;8.370;2023-02-28T05:30:24;10.18;;;4.90;;
31990;SDS011;18508;49.386;8.370;2023-02-28T05:32:53;10.70;;;5.05;;
31990;SDS011;18508;49.386;8.370;2023-02-28T05:35:21;12.48;;;5.93;;
31990;SDS011;18508;49.386;8.370;2023-02-28T05:37:50;10.73;;;5.20;;
31990;SDS011;18508;49.386;8.370;2023-02-28T05:40:19;11.32;;;5.72;;
31990;SDS011;18508;49.386;8.370;2023-02-28T05:42:48;13.38;;;6.20;;
31990;SDS011;18508;49.386;8.370;2023-02-28T05:45:18;10.48;;;5.82;;
31990;SDS011;18508;49.386;8.370;2023-02-28T05:47:48;15.30;;;6.70;;
31990;SDS011;18508;49.386;8.370;2023-02-28T05:52:48;11.40;;;5.90;;
31990;SDS011;18508;49.386;8.370;2023-02-28T05:55:17;16.10;;;6.70;;
31990;SDS011;18508;49.386;8.370;2023-02-28T05:57:45;19.27;;;6.88;;
31990;SDS011;18508;49.386;8.370;2023-02-28T06:00:16;17.30;;;8.48;;
31990;SDS011;18508;49.386;8.370;2023-02-28T06:02:46;22.10;;;9.35;;
31990;SDS011;18508;49.386;8.370;2023-02-28T06:05:17;13.45;;;7.28;;
31990;SDS011;18508;49.386;8.370;2023-02-28T06:07:45;15.50;;;7.63;;
31990;SDS011;18508;49.386;8.370;2023-02-28T06:10:15;15.77;;;7.60;;
31990;SDS011;18508;49.386;8.370;2023-02-28T06:12:43;19.20;;;8.63;;
31990;SDS011;18508;49.386;8.370;2023-02-28T06:15:12;17.88;;;7.57;;
31990;SDS011;18508;49.386;8.370;2023-02-28T06:17:44;14.55;;;6.43;;
31990;SDS011;18508;49.386;8.370;2023-02-28T06:20:14;14.48;;;6.32;;
31990;SDS011;18508;49.386;8.370;2023-02-28T06:22:45;15.48;;;7.07;;
31990;SDS011;18508;49.386;8.370;2023-02-28T06:25:14;13.55;;;6.43;;
31990;SDS011;18508;49.386;8.370;2023-02-28T06:27:46;16.50;;;7.97;;
31990;SDS011;18508;49.386;8.370;2023-02-28T06:30:14;12.88;;;6.43;;
31990;SDS011;18508;49.386;8.370;2023-02-28T06:32:43;11.23;;;6.45;;
31990;SDS011;18508;49.386;8.370;2023-02-28T06:35:11;12.18;;;5.47;;
31990;SDS011;18508;49.386;8.370;2023-02-28T06:37:40;10.70;;;5.35;;
31990;SDS011;18508;49.386;8.370;2023-02-28T06:40:11;16.40;;;5.68;;
31990;SDS011;18508;49.386;8.370;2023-02-28T06:42:41;10.88;;;5.38;;
31990;SDS011;18508;49.386;8.370;2023-02-28T06:45:10;9.85;;;5.25;;
31990;SDS011;18508;49.386;8.370;2023-02-28T06:47:39;13.68;;;6.43;;
31990;SDS011;18508;49.386;8.370;2023-02-28T06:50:10;8.30;;;4.53;;
31990;SDS011;18508;49.386;8.370;2023-02-28T06:52:39;10.20;;;5.78;;
31990;SDS011;18508;49.386;8.370;2023-02-28T06:55:08;11.13;;;5.57;;
31990;SDS011;18508;49.386;8.370;2023-02-28T06:57:39;11.13;;;5.20;;
31990;SDS011;18508;49.386;8.370;2023-02-28T07:00:07;9.63;;;5.68;;
31990;SDS011;18508;49.386;8.370;2023-02-28T07:02:37;9.75;;;5.10;;
31990;SDS011;18508;49.386;8.370;2023-02-28T07:05:06;9.00;;;5.05;;
31990;SDS011;18508;49.386;8.370;2023-02-28T07:07:37;10.60;;;5.38;;
31990;SDS011;18508;49.386;8.370;2023-02-28T07:10:09;10.23;;;5.90;;
31990;SDS011;18508;49.386;8.370;2023-02-28T07:12:41;12.00;;;6.47;;
31990;SDS011;18508;49.386;8.370;2023-02-28T07:15:09;9.75;;;4.82;;
31990;SDS011;18508;49.386;8.370;2023-02-28T07:17:38;11.82;;;6.35;;
31990;SDS011;18508;49.386;8.370;2023-02-28T07:20:09;10.40;;;5.65;;
31990;SDS011;18508;49.386;8.370;2023-02-28T07:22:39;14.88;;;6.43;;
31990;SDS011;18508;49.386;8.370;2023-02-28T07:25:08;10.18;;;5.68;;
31990;SDS011;18508;49.386;8.370;2023-02-28T07:27:38;12.10;;;6.18;;
31990;SDS011;18508;49.386;8.370;2023-02-28T07:30:09;10.13;;;5.47;;
31990;SDS011;18508;49.386;8.370;2023-02-28T07:32:38;11.43;;;5.88;;
31990;SDS011;18508;49.386;8.370;2023-02-28T07:35:10;10.73;;;5.65;;
31990;SDS011;18508;49.386;8.370;2023-02-28T07:37:39;10.32;;;5.60;;
31990;SDS011;18508;49.386;8.370;2023-02-28T07:40:08;14.82;;;5.53;;
31990;SDS011;18508;49.386;8.370;2023-02-28T07:42:38;13.80;;;6.78;;
31990;SDS011;18508;49.386;8.370;2023-02-28T07:45:10;11.68;;;6.57;;
31990;SDS011;18508;49.386;8.370;2023-02-28T07:47:38;15.55;;;6.43;;
31990;SDS011;18508;49.386;8.370;2023-02-28T07:50:08;9.65;;;6.38;;
31990;SDS011;18508;49.386;8.370;2023-02-28T07:52:38;15.38;;;7.00;;
31990;SDS011;18508;49.386;8.370;2023-02-28T07:55:07;14.65;;;6.38;;
31990;SDS011;18508;49.386;8.370;2023-02-28T07:57:37;13.93;;;6.28;;
31990;SDS011;18508;49.386;8.370;2023-02-28T08:00:07;12.10;;;6.10;;
31990;SDS011;18508;49.386;8.370;2023-02-28T08:02:43;12.52;;;6.43;;
31990;SDS011;18508;49.386;8.370;2023-02-28T08:05:11;8.85;;;5.43;;
31990;SDS011;18508;49.386;8.370;2023-02-28T08:07:40;12.38;;;6.45;;
31990;SDS011;18508;49.386;8.370;2023-02-28T08:10:10;11.18;;;6.32;;
31990;SDS011;18508;49.386;8.370;2023-02-28T08:12:38;12.35;;;6.65;;
31990;SDS011;18508;49.386;8.370;2023-02-28T08:15:07;12.65;;;6.28;;
31990;SDS011;18508;49.386;8.370;2023-02-28T08:17:38;11.18;;;6.53;;
31990;SDS011;18508;49.386;8.370;2023-02-28T08:20:07;13.25;;;5.75;;
31990;SDS011;18508;49.386;8.370;2023-02-28T08:22:36;9.57;;;5.65;;
31990;SDS011;18508;49.386;8.370;2023-02-28T08:25:05;14.85;;;6.50;;
31990;SDS011;18508;49.386;8.370;2023-02-28T08:27:34;10.73;;;5.90;;
31990;SDS011;18508;49.386;8.370;2023-02-28T08:30:03;11.88;;;6.47;;
31990;SDS011;18508;49.386;8.370;2023-02-28T08:32:33;12.55;;;6.05;;
31990;SDS011;18508;49.386;8.370;2023-02-28T08:35:02;11.90;;;5.93;;
31990;SDS011;18508;49.386;8.370;2023-02-28T08:37:31;10.48;;;6.10;;
31990;SDS011;18508;49.386;8.370;2023-02-28T08:40:00;14.32;;;6.60;;
31990;SDS011;18508;49.386;8.370;2023-02-28T08:42:30;10.68;;;6.47;;
31990;SDS011;18508;49.386;8.370;2023-02-28T08:45:00;12.05;;;6.15;;
31990;SDS011;18508;49.386;8.370;2023-02-28T08:47:30;14.68;;;7.63;;
31990;SDS011;18508;49.386;8.370;2023-02-28T08:50:02;13.65;;;6.75;;
31990;SDS011;18508;49.386;8.370;2023-02-28T08:52:32;11.00;;;6.30;;
31990;SDS011;18508;49.386;8.370;2023-02-28T08:55:00;10.45;;;6.30;;
31990;SDS011;18508;49.386;8.370;2023-02-28T08:57:29;12.63;;;6.35;;
31990;SDS011;18508;49.386;8.370;2023-02-28T08:59:58;11.85;;;6.40;;
31990;SDS011;18508;49.386;8.370;2023-02-28T09:02:28;13.13;;;6.47;;
31990;SDS011;18508;49.386;8.370;2023-02-28T09:04:57;11.55;;;6.43;;
31990;SDS011;18508;49.386;8.370;2023-02-28T09:07:27;11.80;;;6.70;;
31990;SDS011;18508;49.386;8.370;2023-02-28T09:09:55;12.77;;;6.57;;
31990;SDS011;18508;49.386;8.370;2023-02-28T09:12:25;11.73;;;5.65;;
31990;SDS011;18508;49.386;8.370;2023-02-28T09:14:54;14.90;;;6.55;;
31990;SDS011;18508;49.386;8.370;2023-02-28T09:17:23;10.90;;;6.25;;
31990;SDS011;18508;49.386;8.370;2023-02-28T09:19:56;11.75;;;6.57;;
31990;SDS011;18508;49.386;8.370;2023-02-28T09:22:24;12.20;;;6.28;;
31990;SDS011;18508;49.386;8.370;2023-02-28T09:24:54;11.65;;;6.35;;
31990;SDS011;18508;49.386;8.370;2023-02-28T09:27:23;12.50;;;6.35;;
31990;SDS011;18508;49.386;8.370;2023-02-28T09:29:53;13.88;;;6.43;;
31990;SDS011;18508;49.386;8.370;2023-02-28T09:32:23;9.57;;;5.72;;
31990;SDS011;18508;49.386;8.370;2023-02-28T09:34:52;12.40;;;6.55;;
31990;SDS011;18508;49.386;8.370;2023-02-28T09:37:20;13.20;;;6.50;;
31990;SDS011;18508;49.386;8.370;2023-02-28T09:39:51;10.52;;;6.18;;
31990;SDS011;18508;49.386;8.370;2023-02-28T09:42:27;12.88;;;6.82;;
31990;SDS011;18508;49.386;8.370;2023-02-28T09:44:59;11.82;;;6.25;;
31990;SDS011;18508;49.386;8.370;2023-02-28T09:47:31;12.20;;;5.90;;
31990;SDS011;18508;49.386;8.370;2023-02-28T09:50:06;13.48;;;6.60;;
31990;SDS011;18508;49.386;8.370;2023-02-28T09:52:47;12.17;;;5.97;;
31990;SDS011;18508;49.386;8.370;2023-02-28T09:55:22;13.07;;;6.32;;
31990;SDS011;18508;49.386;8.370;2023-02-28T09:58:09;13.15;;;6.68;;
31990;SDS011;18508;49.386;8.370;2023-02-28T10:00:44;12.02;;;6.35;;
31990;SDS011;18508;49.386;8.370;2023-02-28T10:03:24;12.02;;;6.88;;
31990;SDS011;18508;49.386;8.370;2023-02-28T10:05:57;8.75;;;5.65;;
31990;SDS011;18508;49.386;8.370;2023-02-28T10:08:31;16.10;;;6.55;;
31990;SDS011;18508;49.386;8.370;2023-02-28T10:11:08;11.55;;;6.82;;
31990;SDS011;18508;49.386;8.370;2023-02-28T10:13:42;11.43;;;5.70;;
31990;SDS011;18508;49.386;8.370;2023-02-28T10:16:22;12.63;;;6.78;;
31990;SDS011;18508;49.386;8.370;2023-02-28T10:18:59;12.98;;;6.90;;
31990;SDS011;18508;49.386;8.370;2023-02-28T10:21:34;11.30;;;6.00;;
31990;SDS011;18508;49.386;8.370;2023-02-28T10:24:11;14.48;;;5.85;;
31990;SDS011;18508;49.386;8.370;2023-02-28T10:26:47;10.88;;;6.22;;
31990;SDS011;18508;49.386;8.370;2023-02-28T10:29:20;12.07;;;6.57;;
31990;SDS011;18508;49.386;8.370;2023-02-28T10:31:48;11.02;;;6.10;;
31990;SDS011;18508;49.386;8.370;2023-02-28T10:34:17;11.63;;;6.07;;
31990;SDS011;18508;49.386;8.370;2023-02-28T10:36:45;14.18;;;6.32;;
31990;SDS011;18508;49.386;8.370;2023-02-28T10:42:03;12.18;;;6.78;;
31990;SDS011;18508;49.386;8.370;2023-02-28T10:44:34;9.65;;;5.65;;
31990;SDS011;18508;49.386;8.370;2023-02-28T10:47:02;12.32;;;6.00;;
31990;SDS011;18508;49.386;8.370;2023-02-28T10:49:31;10.88;;;6.35;;
31990;SDS011;18508;49.386;8.370;2023-02-28T10:52:00;13.45;;;6.57;;
31990;SDS011;18508;49.386;8.370;2023-02-28T10:54:30;11.52;;;6.40;;
31990;SDS011;18508;49.386;8.370;2023-02-28T10:57:08;11.55;;;6.68;;
31990;SDS011;18508;49.386;8.370;2023-02-28T10:59:51;11.30;;;6.70;;
31990;SDS011;18508;49.386;8.370;2023-02-28T11:02:36;11.45;;;6.22;;
31990;SDS011;18508;49.386;8.370;2023-02-28T11:05:25;12.15;;;5.80;;
31990;SDS011;18508;49.386;8.370;2023-02-28T11:08:05;10.63;;;6.32;;
31990;SDS011;18508;49.386;8.370;2023-02-28T11:10:43;14.02;;;6.63;;
31990;SDS011;18508;49.386;8.370;2023-02-28T11:13:16;13.98;;;6.82;;
31990;SDS011;18508;49.386;8.370;2023-02-28T11:15:50;13.10;;;6.70;;
31990;SDS011;18508;49.386;8.370;2023-02-28T11:18:22;12.48;;;6.15;;
31990;SDS011;18508;49.386;8.370;2023-02-28T11:20:55;12.40;;;6.95;;
31990;SDS011;18508;49.386;8.370;2023-02-28T11:23:27;11.65;;;6.72;;
31990;SDS011;18508;49.386;8.370;2023-02-28T11:25:58;12.02;;;6.00;;
31990;SDS011;18508;49.386;8.370;2023-02-28T11:28:31;11.50;;;6.90;;
31990;SDS011;18508;49.386;8.370;2023-02-28T11:31:17;10.40;;;6.20;;
31990;SDS011;18508;49.386;8.370;2023-02-28T11:33:49;11.23;;;6.63;;
31990;SDS011;18508;49.386;8.370;2023-02-28T11:36:20;11.00;;;6.50;;
31990;SDS011;18508;49.386;8.370;2023-02-28T11:38:52;11.00;;;6.10;;
31990;SDS011;18508;49.386;8.370;2023-02-28T11:44:21;11.80;;;6.40;;
31990;SDS011;18508;49.386;8.370;2023-02-28T11:47:13;11.85;;;6.35;;
31990;SDS011;18508;49.386;8.370;2023-02-28T11:49:49;12.80;;;6.45;;
31990;SDS011;18508;49.386;8.370;2023-02-28T11:52:35;12.20;;;6.63;;
31990;SDS011;18508;49.386;8.370;2023-02-28T11:55:14;11.35;;;5.85;;
31990;SDS011;18508;49.386;8.370;2023-02-28T11:57:57;10.75;;;5.80;;
31990;SDS011;18508;49.386;8.370;2023-02-28T12:00:47;12.43;;;6.38;;
31990;SDS011;18508;49.386;8.370;2023-02-28T12:03:31;11.13;;;6.35;;
31990;SDS011;18508;49.386;8.370;2023-02-28T12:06:12;11.38;;;6.72;;
31990;SDS011;18508;49.386;8.370;2023-02-28T12:08:48;12.60;;;6.63;;
31990;SDS011;18508;49.386;8.370;2023-02-28T12:11:30;13.25;;;7.85;;
31990;SDS011;18508;49.386;8.370;2023-02-28T12:14:15;11.23;;;6.82;;
31990;SDS011;18508;49.386;8.370;2023-02-28T12:17:04;15.90;;;6.93;;
31990;SDS011;18508;49.386;8.370;2023-02-28T12:19:47;12.43;;;7.07;;
31990;SDS011;18508;49.386;8.370;2023-02-28T12:22:26;12.50;;;7.10;;
31990;SDS011;18508;49.386;8.370;2023-02-28T12:28:08;12.93;;;7.78;;
31990;SDS011;18508;49.386;8.370;2023-02-28T12:30:38;13.10;;;6.90;;
31990;SDS011;18508;49.386;8.370;2023-02-28T12:33:14;13.05;;;6.85;;
31990;SDS011;18508;49.386;8.370;2023-02-28T12:35:51;14.07;;;7.53;;
31990;SDS011;18508;49.386;8.370;2023-02-28T12:38:24;12.13;;;6.65;;
31990;SDS011;18508;49.386;8.370;2023-02-28T12:40:58;12.90;;;7.45;;
31990;SDS011;18508;49.386;8.370;2023-02-28T12:43:30;13.85;;;7.80;;
31990;SDS011;18508;49.386;8.370;2023-02-28T12:46:09;11.80;;;6.68;;
31990;SDS011;18508;49.386;8.370;2023-02-28T12:48:41;12.32;;;7.82;;
31990;SDS011;18508;49.386;8.370;2023-02-28T12:51:13;15.52;;;7.63;;
31990;SDS011;18508;49.386;8.370;2023-02-28T12:53:50;12.73;;;7.60;;
31990;SDS011;18508;49.386;8.370;2023-02-28T12:56:29;10.98;;;6.95;;
31990;SDS011;18508;49.386;8.370;2023-02-28T12:59:05;13.73;;;7.60;;
31990;SDS011;18508;49.386;8.370;2023-02-28T13:01:54;12.63;;;7.35;;
31990;SDS011;18508;49.386;8.370;2023-02-28T13:04:40;13.25;;;7.57;;
31990;SDS011;18508;49.386;8.370;2023-02-28T13:07:29;14.15;;;7.93;;
31990;SDS011;18508;49.386;8.370;2023-02-28T13:10:07;13.75;;;8.15;;
31990;SDS011;18508;49.386;8.370;2023-02-28T13:12:38;13.57;;;7.70;;
31990;SDS011;18508;49.386;8.370;2023-02-28T13:15:21;10.63;;;6.93;;
31990;SDS011;18508;49.386;8.370;2023-02-28T13:17:54;10.43;;;6.95;;
31990;SDS011;18508;49.386;8.370;2023-02-28T13:20:26;13.32;;;8.25;;
31990;SDS011;18508;49.386;8.370;2023-02-28T13:22:58;12.20;;;7.38;;
31990;SDS011;18508;49.386;8.370;2023-02-28T13:34:46;10.23;;;7.20;;
31990;SDS011;18508;49.386;8.370;2023-02-28T13:37:41;13.30;;;7.53;;
31990;SDS011;18508;49.386;8.370;2023-02-28T13:40:29;12.52;;;7.40;;
31990;SDS011;18508;49.386;8.370;2023-02-28T13:43:06;13.93;;;7.97;;
31990;SDS011;18508;49.386;8.370;2023-02-28T13:45:36;11.30;;;7.38;;
31990;SDS011;18508;49.386;8.370;2023-02-28T13:48:15;10.90;;;7.38;;
31990;SDS011;18508;49.386;8.370;2023-02-28T13:50:45;11.35;;;6.72;;
31990;SDS011;18508;49.386;8.370;2023-02-28T13:53:27;13.88;;;8.05;;
31990;SDS011;18508;49.386;8.370;2023-02-28T13:56:04;13.80;;;7.70;;
31990;SDS011;18508;49.386;8.370;2023-02-28T13:58:48;13.55;;;8.00;;
31990;SDS011;18508;49.386;8.370;2023-02-28T14:01:34;12.05;;;7.07;;
31990;SDS011;18508;49.386;8.370;2023-02-28T14:04:31;13.43;;;8.00;;
31990;SDS011;18508;49.386;8.370;2023-02-28T14:07:25;13.07;;;8.00;;
31990;SDS011;18508;49.386;8.370;2023-02-28T14:10:01;14.98;;;8.10;;
31990;SDS011;18508;49.386;8.370;2023-02-28T14:12:57;15.77;;;7.88;;
31990;SDS011;18508;49.386;8.370;2023-02-28T14:15:39;11.82;;;7.43;;
31990;SDS011;18508;49.386;8.370;2023-02-28T14:18:20;13.40;;;7.53;;
31990;SDS011;18508;49.386;8.370;2023-02-28T14:20:54;12.55;;;8.10;;
31990;SDS011;18508;49.386;8.370;2023-02-28T14:23:36;15.20;;;7.35;;
31990;SDS011;18508;49.386;8.370;2023-02-28T14:26:19;13.93;;;8.10;;
31990;SDS011;18508;49.386;8.370;2023-02-28T14:29:14;13.38;;;7.60;;
31990;SDS011;18508;49.386;8.370;2023-02-28T14:31:58;12.80;;;7.50;;
31990;SDS011;18508;49.386;8.370;2023-02-28T14:34:33;13.43;;;7.88;;
31990;SDS011;18508;49.386;8.370;2023-02-28T14:37:11;14.90;;;8.20;;
31990;SDS011;18508;49.386;8.370;2023-02-28T14:39:44;14.23;;;7.93;;
31990;SDS011;18508;49.386;8.370;2023-02-28T14:42:27;16.13;;;8.30;;
31990;SDS011;18508;49.386;8.370;2023-02-28T14:44:59;14.02;;;7.95;;
31990;SDS011;18508;49.386;8.370;2023-02-28T14:47:30;13.25;;;8.05;;
31990;SDS011;18508;49.386;8.370;2023-02-28T14:50:00;15.10;;;8.77;;
31990;SDS011;18508;49.386;8.370;2023-02-28T14:52:32;15.32;;;8.98;;
31990;SDS011;18508;49.386;8.370;2023-02-28T14:55:01;13.23;;;8.43;;
31990;SDS011;18508;49.386;8.370;2023-02-28T14:57:39;15.07;;;8.93;;
31990;SDS011;18508;49.386;8.370;2023-02-28T15:00:14;13.88;;;8.38;;
31990;SDS011;18508;49.386;8.370;2023-02-28T15:02:48;12.63;;;8.13;;
31990;SDS011;18508;49.386;8.370;2023-02-28T15:05:19;12.75;;;7.95;;
31990;SDS011;18508;49.386;8.370;2023-02-28T15:08:03;13.80;;;8.70;;
31990;SDS011;18508;49.386;8.370;2023-02-28T15:10:33;15.00;;;7.82;;
31990;SDS011;18508;49.386;8.370;2023-02-28T15:13:04;13.38;;;8.80;;
31990;SDS011;18508;49.386;8.370;2023-02-28T15:15:41;14.98;;;8.10;;
31990;SDS011;18508;49.386;8.370;2023-02-28T15:18:29;18.52;;;7.43;;
31990;SDS011;18508;49.386;8.370;2023-02-28T15:21:02;16.38;;;8.60;;
31990;SDS011;18508;49.386;8.370;2023-02-28T15:23:32;14.33;;;8.73;;
31990;SDS011;18508;49.386;8.370;2023-02-28T15:26:04;12.48;;;7.20;;
31990;SDS011;18508;49.386;8.370;2023-02-28T15:28:33;13.07;;;8.15;;
31990;SDS011;18508;49.386;8.370;2023-02-28T15:31:03;13.40;;;8.55;;
31990;SDS011;18508;49.386;8.370;2023-02-28T15:33:52;14.60;;;8.40;;
31990;SDS011;18508;49.386;8.370;2023-02-28T15:38:55;14.63;;;7.68;;
31990;SDS011;18508;49.386;8.370;2023-02-28T15:41:40;14.48;;;8.00;;
31990;SDS011;18508;49.386;8.370;2023-02-28T15:44:17;13.18;;;8.43;;
31990;SDS011;18508;49.386;8.370;2023-02-28T15:46:56;10.75;;;7.15;;